Time;durP1;ratioP1;P1;durP2;ratioP2;P2;SDS_P1;SDS_P2;PMS_P1;PMS_P2;Temp;Humidity;BMP_temperature;BMP_pressure;BME280_temperature;BME280_humidity;BME280_pressure;Samples;Min_cycle;Max_cycle;Signal;HPM_P1;HPM_P2
2022/05/13 00:01:29;;;;;;;;;;;;;;;17.85;74.12;99715.94;5094801;28;20019;-71
2022/05/13 00:04:07;;;;;;;;;;;;;;;17.89;74.28;99717.53;5079157;28;19959;-70
2022/05/13 00:06:36;;;;;;;;;;;;;;;17.91;73.93;99716.59;5094615;28;20007;-70
2022/05/13 00:12:10;;;;;;;;;;;;;;;18.00;74.07;99715.44;5094463;28;19924;-71
2022/05/13 00:14:40;;;;;;;;;;;;;;;18.06;74.05;99710.13;5094090;28;19924;-71
2022/05/13 00:17:09;;;;;;;;;;;;;;;18.08;73.88;99703.16;5094214;28;19924;-71
2022/05/13 00:19:38;;;;;;;;;;;;;;;18.04;74.00;99707.56;5094143;28;19924;-71
2022/05/13 00:22:07;;;;;;;;;;;;;;;18.00;74.06;99710.28;5094053;28;20018;-71
2022/05/13 00:24:35;;;;;;;;;;;;;;;17.94;74.24;99705.31;5094245;28;20029;-70
2022/05/13 00:27:04;;;;;;;;;;;;;;;17.89;74.63;99712.34;5094036;28;19947;-71
2022/05/13 00:29:33;;;;;;;;;;;;;;;17.87;74.63;99704.66;5093924;28;19935;-71
2022/05/13 00:32:04;;;;;;;;;;;;;;;17.89;74.69;99681.38;5094283;28;20453;-71
2022/05/13 00:34:35;;;;;;;;;;;;;;;17.91;74.76;99677.00;5093910;28;19928;-71
2022/05/13 00:37:04;;;;;;;;;;;;;;;17.92;75.00;99671.78;5093994;28;19928;-71
2022/05/13 00:39:33;;;;;;;;;;;;;;;17.94;75.20;99679.50;5093939;28;19950;-71
2022/05/13 00:42:08;;;;;;;;;;;;;;;17.96;75.30;99672.53;5094225;28;19924;-70
2022/05/13 00:44:38;;;;;;;;;;;;;;;18.03;75.39;99681.78;5093857;28;20396;-70
2022/05/13 00:47:12;;;;;;;;;;;;;;;18.07;75.25;99662.72;5094429;28;19947;-70
2022/05/13 00:49:41;;;;;;;;;;;;;;;18.12;74.93;99663.41;5094269;28;19924;-70
2022/05/13 00:52:10;;;;;;;;;;;;;;;18.14;74.46;99653.03;5093840;28;19928;-70
2022/05/13 00:54:50;;;;;;;;;;;;;;;18.19;73.77;99659.72;5075707;28;19925;-70
2022/05/13 00:57:19;;;;;;;;;;;;;;;18.25;73.12;99664.72;5093842;28;20331;-71
2022/05/13 01:00:08;;;;;;;;;;;;;;;18.33;72.89;99669.66;5093936;28;19963;-70
2022/05/13 01:02:43;;;;;;;;;;;;;;;18.27;72.55;99673.28;5093482;28;19971;-70
2022/05/13 01:05:16;;;;;;;;;;;;;;;18.28;72.55;99687.88;5093976;28;20022;-70
2022/05/13 01:07:45;;;;;;;;;;;;;;;18.23;72.00;99687.19;5094136;28;19974;-70
2022/05/13 01:10:27;;;;;;;;;;;;;;;18.26;71.94;99694.81;5093700;28;19924;-70
2022/05/13 01:13:04;;;;;;;;;;;;;;;18.25;71.70;99700.91;5075966;28;19924;-69
2022/05/13 01:15:40;;;;;;;;;;;;;;;18.23;71.37;99707.84;5075749;28;19928;-71
2022/05/13 01:18:10;;;;;;;;;;;;;;;18.23;71.49;99707.84;5094212;28;19924;-71
2022/05/13 01:20:53;;;;;;;;;;;;;;;18.22;71.31;99700.13;5093609;28;19931;-71
2022/05/13 01:23:34;;;;;;;;;;;;;;;18.17;71.39;99702.88;5093972;28;19924;-71
2022/05/13 01:26:04;;;;;;;;;;;;;;;18.17;71.30;99700.28;5093453;28;19924;-71
2022/05/13 01:28:37;;;;;;;;;;;;;;;18.17;71.37;99708.03;5099414;28;20402;-70
2022/05/13 01:31:08;;;;;;;;;;;;;;;18.11;71.54;99703.06;5053369;28;19928;-71
2022/05/13 01:33:37;;;;;;;;;;;;;;;18.09;71.59;99704.88;5053602;28;19925;-71
2022/05/13 01:36:12;;;;;;;;;;;;;;;18.08;71.59;99698.00;5054379;28;19936;-71
2022/05/13 01:38:46;;;;;;;;;;;;;;;18.03;71.74;99705.88;5057166;28;20390;-71
2022/05/13 01:41:15;;;;;;;;;;;;;;;17.95;72.19;99707.00;5056835;28;20035;-71
2022/05/13 01:43:54;;;;;;;;;;;;;;;17.91;72.41;99713.16;5056796;28;19932;-71
2022/05/13 01:46:25;;;;;;;;;;;;;;;17.92;72.39;99707.94;5057064;28;19929;-69
2022/05/13 01:48:57;;;;;;;;;;;;;;;17.93;72.29;99713.94;5056677;28;19931;-69
2022/05/13 01:51:29;;;;;;;;;;;;;;;17.96;72.10;99713.84;5056630;28;19929;-70
2022/05/13 01:54:00;;;;;;;;;;;;;;;18.00;71.92;99720.63;5056985;28;20016;-71
2022/05/13 01:56:29;;;;;;;;;;;;;;;17.97;72.19;99723.31;5088862;28;19925;-71
2022/05/13 01:58:58;;;;;;;;;;;;;;;17.97;72.29;99720.72;5056423;28;19924;-71
2022/05/13 02:01:27;;;;;;;;;;;;;;;17.92;72.62;99738.91;5056356;28;19975;-71
2022/05/13 02:03:56;;;;;;;;;;;;;;;17.89;73.02;99744.19;5056317;28;19932;-71
2022/05/13 02:06:28;;;;;;;;;;;;;;;17.89;73.21;99753.69;5056225;28;20275;-71
2022/05/13 02:08:58;;;;;;;;;;;;;;;17.88;73.33;99757.13;5056308;28;19929;-71
2022/05/13 02:11:30;;;;;;;;;;;;;;;17.89;73.34;99756.25;5056862;28;20445;-71
2022/05/13 02:13:59;;;;;;;;;;;;;;;17.89;73.19;99748.50;5056499;28;19925;-71
2022/05/13 02:16:28;;;;;;;;;;;;;;;17.87;73.23;99747.72;5056288;28;20362;-71
2022/05/13 02:18:57;;;;;;;;;;;;;;;17.86;73.28;99748.59;5056394;28;19925;-71
2022/05/13 02:21:26;;;;;;;;;;;;;;;17.86;73.33;99753.75;5056320;28;20333;-71
2022/05/13 02:23:57;;;;;;;;;;;;;;;17.89;73.37;99743.34;5055965;28;19971;-70
2022/05/13 02:26:28;;;;;;;;;;;;;;;17.96;73.37;99747.44;5056463;28;20033;-69
2022/05/13 02:29:06;;;;;;;;;;;;;;;17.97;73.75;99743.97;5074952;28;19974;-70
2022/05/13 02:31:35;;;;;;;;;;;;;;;17.88;74.14;99736.47;5096281;28;19931;-71
2022/05/13 02:34:07;;;;;;;;;;;;;;;17.85;74.23;99729.66;5096019;28;19977;-72
2022/05/13 02:36:48;;;;;;;;;;;;;;;17.82;74.66;99726.34;5096443;28;19928;-71
2022/05/13 02:39:25;;;;;;;;;;;;;;;17.85;74.98;99728.84;5078408;28;19969;-71
2022/05/13 02:41:59;;;;;;;;;;;;;;;17.88;74.72;99728.72;5096161;28;20381;-71
2022/05/13 02:44:28;;;;;;;;;;;;;;;17.91;75.14;99746.72;5095852;28;19924;-71
2022/05/13 02:46:57;;;;;;;;;;;;;;;17.92;75.44;99743.25;5095728;28;19924;-71
2022/05/13 02:49:35;;;;;;;;;;;;;;;17.85;75.66;99736.59;5095703;28;19928;-71
2022/05/13 02:52:04;;;;;;;;;;;;;;;17.85;75.88;99732.25;5077983;28;19928;-71
2022/05/13 02:54:34;;;;;;;;;;;;;;;17.84;76.23;99743.47;5095952;28;19930;-71
2022/05/13 02:57:05;;;;;;;;;;;;;;;17.67;76.51;99757.75;5095493;28;20392;-72
2022/05/13 02:59:37;;;;;;;;;;;;;;;17.60;76.80;99749.34;5095893;28;19924;-72
2022/05/13 03:02:05;;;;;;;;;;;;;;;17.51;76.90;99770.22;5077772;28;19974;-72
2022/05/13 03:04:37;;;;;;;;;;;;;;;17.53;77.41;99785.69;5095860;28;19975;-71
2022/05/13 03:07:09;;;;;;;;;;;;;;;17.52;77.47;99795.16;5095451;28;19924;-71
2022/05/13 03:09:38;;;;;;;;;;;;;;;17.49;77.54;99789.22;5095380;28;19974;-72
2022/05/13 03:12:13;;;;;;;;;;;;;;;17.32;77.67;99787.09;5077402;28;20019;-72
2022/05/13 03:14:41;;;;;;;;;;;;;;;17.27;77.93;99804.41;5095641;28;19954;-72
2022/05/13 03:17:10;;;;;;;;;;;;;;;17.19;77.83;99804.59;5095370;28;20373;-72
2022/05/13 03:19:40;;;;;;;;;;;;;;;17.18;78.16;99804.66;5077284;28;19998;-72
2022/05/13 03:22:08;;;;;;;;;;;;;;;17.13;78.64;99811.66;5095686;28;20364;-72
2022/05/13 03:24:50;;;;;;;;;;;;;;;17.11;78.79;99831.47;5095306;28;19950;-72
2022/05/13 03:27:20;;;;;;;;;;;;;;;16.91;79.10;99837.13;5095357;28;19924;-72
2022/05/13 03:29:49;;;;;;;;;;;;;;;16.73;79.57;99835.81;5094340;28;19924;-72
2022/05/13 03:32:20;;;;;;;;;;;;;;;16.48;79.77;99846.69;5094901;28;19928;-71
2022/05/13 03:34:55;;;;;;;;;;;;;;;16.39;80.61;99842.56;5095533;28;19924;-73
2022/05/13 03:37:32;;;;;;;;;;;;;;;16.41;81.44;99837.41;5094967;28;19954;-72
2022/05/13 03:40:05;;;;;;;;;;;;;;;16.49;81.92;99843.22;5076977;28;19924;-71
2022/05/13 03:42:36;;;;;;;;;;;;;;;16.57;82.33;99837.06;5095065;28;20262;-72
2022/05/13 03:45:05;;;;;;;;;;;;;;;16.68;82.54;99834.22;5111137;28;19925;-72
2022/05/13 03:47:37;;;;;;;;;;;;;;;16.80;82.56;99839.09;5094990;28;20007;-72
2022/05/13 03:50:07;;;;;;;;;;;;;;;16.92;82.94;99833.66;5094724;28;19924;-72
2022/05/13 03:52:39;;;;;;;;;;;;;;;17.02;83.00;99832.53;5094850;28;20388;-71
2022/05/13 03:55:08;;;;;;;;;;;;;;;17.13;82.90;99842.63;5094566;28;19928;-72
2022/05/13 03:57:41;;;;;;;;;;;;;;;17.20;82.79;99841.56;5094414;28;19924;-72
2022/05/13 04:00:14;;;;;;;;;;;;;;;17.23;82.79;99852.66;5094533;28;19928;-71
2022/05/13 04:02:45;;;;;;;;;;;;;;;17.27;82.57;99856.88;5094445;28;20274;-71
2022/05/13 04:10:35;;;;;;;;;;;;;;;17.30;83.03;99845.59;5094415;28;19924;-72
2022/05/13 04:16:07;;;;;;;;;;;;;;;17.29;83.36;99824.13;5094213;28;19939;-72
2022/05/13 04:18:40;;;;;;;;;;;;;;;17.37;83.54;99826.53;5076463;28;19924;-72
2022/05/13 04:21:11;;;;;;;;;;;;;;;17.34;83.31;99826.59;5094123;28;19935;-71
2022/05/13 04:23:44;;;;;;;;;;;;;;;17.24;83.58;99815.66;5094514;28;20021;-72
2022/05/13 04:26:13;;;;;;;;;;;;;;;16.99;83.51;99819.72;5094136;28;19924;-73
2022/05/13 04:28:45;;;;;;;;;;;;;;;16.81;84.31;99830.50;5092629;28;19939;-71
2022/05/13 04:31:14;;;;;;;;;;;;;;;16.81;84.74;99827.91;5093923;28;19925;-72
2022/05/13 04:33:43;;;;;;;;;;;;;;;16.88;85.25;99826.88;5093963;28;19928;-72
2022/05/13 04:36:15;;;;;;;;;;;;;;;16.92;85.48;99825.06;5094195;28;19924;-72
2022/05/13 04:38:48;;;;;;;;;;;;;;;17.00;85.52;99826.59;5093974;28;20381;-72
2022/05/13 04:43:57;;;;;;;;;;;;;;;17.19;85.80;99812.34;5093979;28;19924;-73
2022/05/13 04:46:26;;;;;;;;;;;;;;;17.24;85.87;99795.03;5092841;28;19931;-72
2022/05/13 04:48:58;;;;;;;;;;;;;;;17.21;85.67;99813.16;5093157;28;19973;-73
2022/05/13 04:51:27;;;;;;;;;;;;;;;17.26;85.98;99811.31;5094424;28;19928;-72
2022/05/13 04:53:56;;;;;;;;;;;;;;;17.20;85.58;99814.03;5093714;28;19977;-72
2022/05/13 04:56:26;;;;;;;;;;;;;;;17.17;85.50;99811.53;5093675;28;19925;-73
2022/05/13 04:58:56;;;;;;;;;;;;;;;17.08;85.44;99809.19;5094114;28;19979;-74
2022/05/13 05:01:25;;;;;;;;;;;;;;;16.98;85.54;99800.00;5093765;28;19932;-72
2022/05/13 05:03:54;;;;;;;;;;;;;;;16.97;85.80;99800.88;5094097;28;19959;-73
2022/05/13 05:06:32;;;;;;;;;;;;;;;17.08;86.12;99814.34;5093689;28;19931;-73
2022/05/13 05:09:20;;;;;;;;;;;;;;;17.19;86.21;99812.34;5092758;28;20023;-73
2022/05/13 05:11:49;;;;;;;;;;;;;;;17.34;86.27;99817.13;5096331;28;20289;-73
2022/05/13 05:14:19;;;;;;;;;;;;;;;17.46;86.28;99815.94;5097868;28;19928;-71
2022/05/13 05:16:47;;;;;;;;;;;;;;;17.55;86.17;99812.28;5096316;28;20027;-71
2022/05/13 05:19:17;;;;;;;;;;;;;;;17.65;86.40;99811.16;5097548;28;19972;-72
2022/05/13 05:21:46;;;;;;;;;;;;;;;17.70;86.50;99814.47;5097298;28;19924;-72
2022/05/13 05:24:14;;;;;;;;;;;;;;;17.75;86.45;99818.63;5097460;28;20023;-73
2022/05/13 05:26:44;;;;;;;;;;;;;;;17.84;86.13;99813.19;5097368;28;19996;-71
2022/05/13 05:29:13;;;;;;;;;;;;;;;17.93;85.93;99812.94;5097177;28;19924;-72
2022/05/13 05:31:43;;;;;;;;;;;;;;;17.98;85.58;99810.22;5097144;28;19924;-73
2022/05/13 05:34:13;;;;;;;;;;;;;;;18.03;85.33;99819.53;5097744;28;19924;-71
2022/05/13 05:36:41;;;;;;;;;;;;;;;18.11;85.06;99811.56;5096977;28;19931;-71
2022/05/13 05:39:11;;;;;;;;;;;;;;;18.15;84.69;99822.66;5095978;28;19928;-71
2022/05/13 05:41:40;;;;;;;;;;;;;;;18.28;84.41;99819.69;5097341;28;20408;-72
2022/05/13 05:44:08;;;;;;;;;;;;;;;18.32;84.03;99823.84;5097177;28;19928;-71
2022/05/13 05:46:37;;;;;;;;;;;;;;;18.40;83.23;99823.63;5097181;28;20039;-72
2022/05/13 05:49:08;;;;;;;;;;;;;;;18.44;82.88;99820.91;5097374;28;19962;-73
2022/05/13 05:51:37;;;;;;;;;;;;;;;18.48;82.58;99819.94;5096896;28;19924;-72
2022/05/13 05:59:35;;;;;;;;;;;;;;;18.50;81.27;99836.25;5096615;28;20370;-72
2022/05/13 06:02:04;;;;;;;;;;;;;;;18.52;80.97;99829.28;5096933;28;20385;-73
2022/05/13 06:04:35;;;;;;;;;;;;;;;18.52;80.98;99834.44;5095602;28;20439;-73
2022/05/13 06:07:05;;;;;;;;;;;;;;;18.61;81.01;99839.38;5096820;28;20366;-73
2022/05/13 06:09:34;;;;;;;;;;;;;;;18.63;81.15;99840.16;5096811;28;19928;-73
2022/05/13 06:12:03;;;;;;;;;;;;;;;18.54;80.69;99847.34;5079184;28;20328;-73
2022/05/13 06:14:31;;;;;;;;;;;;;;;18.56;80.18;99850.72;5096494;28;19924;-73
2022/05/13 06:17:00;;;;;;;;;;;;;;;18.58;79.95;99844.63;5096723;28;20014;-71
2022/05/13 06:19:29;;;;;;;;;;;;;;;18.60;80.05;99850.59;5096645;28;19932;-72
2022/05/13 06:22:00;;;;;;;;;;;;;;;18.63;80.04;99844.47;5096176;28;19933;-71
2022/05/13 06:24:29;;;;;;;;;;;;;;;18.65;80.36;99851.28;5096893;28;19928;-72
2022/05/13 06:26:58;;;;;;;;;;;;;;;18.56;80.42;99845.56;5096159;28;19924;-71
2022/05/13 06:29:27;;;;;;;;;;;;;;;18.39;80.90;99843.44;5095805;28;19931;-70
2022/05/13 06:31:58;;;;;;;;;;;;;;;18.35;81.09;99844.44;5096441;28;19987;-71
2022/05/13 06:34:27;;;;;;;;;;;;;;;18.38;81.72;99853.84;5096065;28;19924;-71
2022/05/13 06:36:56;;;;;;;;;;;;;;;18.34;82.05;99845.31;5096325;28;20328;-71
2022/05/13 06:39:26;;;;;;;;;;;;;;;18.33;82.30;99843.63;5096050;28;20010;-71
2022/05/13 06:41:55;;;;;;;;;;;;;;;18.34;82.83;99837.56;5095838;28;20014;-71
2022/05/13 06:44:24;;;;;;;;;;;;;;;18.41;83.13;99836.50;5096052;28;20339;-72
2022/05/13 06:46:52;;;;;;;;;;;;;;;18.48;83.49;99824.25;5096187;28;19924;-70
2022/05/13 06:49:21;;;;;;;;;;;;;;;18.48;83.47;99822.53;5096663;28;20440;-71
2022/05/13 06:51:50;;;;;;;;;;;;;;;18.49;83.59;99818.22;5095980;28;20331;-71
2022/05/13 06:54:21;;;;;;;;;;;;;;;18.44;83.41;99815.72;5096610;28;20408;-71
2022/05/13 06:56:54;;;;;;;;;;;;;;;18.41;83.21;99826.16;5095617;28;19928;-71
2022/05/13 06:59:23;;;;;;;;;;;;;;;18.43;83.51;99821.78;5095653;28;20038;-71
2022/05/13 07:01:52;;;;;;;;;;;;;;;18.43;83.41;99824.38;5096008;28;19950;-71
2022/05/13 07:04:24;;;;;;;;;;;;;;;18.43;83.58;99826.09;5095785;28;19947;-70
2022/05/13 07:06:53;;;;;;;;;;;;;;;18.42;83.72;99827.88;5095438;28;19924;-71
2022/05/13 07:09:25;;;;;;;;;;;;;;;18.44;83.96;99826.06;5095613;28;20381;-72
2022/05/13 07:11:56;;;;;;;;;;;;;;;18.50;83.78;99827.66;5095364;28;19973;-72
2022/05/13 07:14:25;;;;;;;;;;;;;;;18.50;84.26;99819.91;5095313;28;19973;-72
2022/05/13 07:16:53;;;;;;;;;;;;;;;18.50;84.26;99820.72;5095151;28;19994;-71
2022/05/13 07:19:22;;;;;;;;;;;;;;;18.56;84.41;99820.56;5095140;28;20011;-70
2022/05/13 07:21:52;;;;;;;;;;;;;;;18.64;84.54;99817.75;5094061;28;19970;-72
2022/05/13 07:24:21;;;;;;;;;;;;;;;18.74;84.45;99812.22;5095372;28;19947;-71
2022/05/13 07:26:52;;;;;;;;;;;;;;;18.83;84.15;99811.09;5095065;28;19928;-71
2022/05/13 07:29:23;;;;;;;;;;;;;;;18.95;84.16;99815.03;5094713;28;20388;-70
2022/05/13 07:31:51;;;;;;;;;;;;;;;19.11;83.82;99803.25;5095660;28;20019;-72
2022/05/13 07:34:21;;;;;;;;;;;;;;;19.27;83.70;99810.44;5093288;28;19924;-71
2022/05/13 07:36:53;;;;;;;;;;;;;;;19.40;83.58;99810.91;5094832;28;19924;-72
2022/05/13 07:42:04;;;;;;;;;;;;;;;19.53;82.60;99812.16;5095261;28;19971;-70
2022/05/13 07:44:34;;;;;;;;;;;;;;;19.58;82.12;99799.91;5094777;28;19935;-72
2022/05/13 07:47:04;;;;;;;;;;;;;;;19.72;81.62;99808.06;5094569;28;19928;-71
2022/05/13 07:49:34;;;;;;;;;;;;;;;19.95;81.58;99815.84;5094623;28;19931;-72
2022/05/13 07:52:02;;;;;;;;;;;;;;;20.08;81.03;99805.00;5094642;28;19977;-72
2022/05/13 07:54:31;;;;;;;;;;;;;;;20.27;80.21;99814.69;5095309;28;20305;-71
2022/05/13 07:57:00;;;;;;;;;;;;;;;20.34;79.11;99812.69;5075751;28;19925;-70
2022/05/13 07:59:31;;;;;;;;;;;;;;;20.48;78.00;99816.44;5094491;28;19993;-70
2022/05/13 08:02:02;;;;;;;;;;;;;;;20.45;77.11;99805.31;5094358;28;19953;-71
2022/05/13 08:04:30;;;;;;;;;;;;;;;20.40;76.35;99813.28;5094527;28;19950;-71
2022/05/13 08:07:06;;;;;;;;;;;;;;;20.36;76.16;99810.88;5094682;28;19924;-71
2022/05/13 08:09:35;;;;;;;;;;;;;;;20.33;75.92;99810.97;5094833;28;19924;-71
2022/05/13 08:12:07;;;;;;;;;;;;;;;20.27;75.71;99816.41;5094767;28;20041;-71
2022/05/13 08:14:36;;;;;;;;;;;;;;;20.23;75.44;99814.84;5094305;28;19930;-71
2022/05/13 08:17:06;;;;;;;;;;;;;;;20.12;75.45;99822.13;5094042;28;19931;-72
2022/05/13 08:19:35;;;;;;;;;;;;;;;20.13;75.80;99834.19;5093065;28;20015;-71
2022/05/13 08:22:05;;;;;;;;;;;;;;;20.18;76.43;99832.28;5094446;28;19935;-71
2022/05/13 08:24:34;;;;;;;;;;;;;;;20.15;76.44;99837.56;5094115;28;19935;-71
2022/05/13 08:27:03;;;;;;;;;;;;;;;20.17;76.45;99846.13;5093844;28;20404;-71
2022/05/13 08:29:31;;;;;;;;;;;;;;;20.13;76.52;99849.75;5093806;28;19924;-72
2022/05/13 08:32:00;;;;;;;;;;;;;;;20.08;76.21;99842.97;5094003;28;19970;-71
2022/05/13 08:34:30;;;;;;;;;;;;;;;20.11;76.25;99846.38;5093972;28;20386;-71
2022/05/13 08:37:02;;;;;;;;;;;;;;;20.16;75.91;99844.44;5092753;28;19924;-72
2022/05/13 08:39:31;;;;;;;;;;;;;;;20.28;76.30;99849.19;5094084;28;19931;-71
2022/05/13 08:42:35;;;;;;;;;;;;;;;20.30;76.10;99850.00;5094024;28;19947;-70
2022/05/13 08:45:09;;;;;;;;;;;;;;;20.32;76.21;99848.19;5095537;28;19924;-70
2022/05/13 08:47:48;;;;;;;;;;;;;;;20.43;76.20;99851.22;5098482;28;20026;-70
2022/05/13 08:50:22;;;;;;;;;;;;;;;20.54;75.86;99842.13;5098112;28;19963;-70
2022/05/13 08:55:38;;;;;;;;;;;;;;;20.52;74.91;99853.44;5098234;28;20435;-70
2022/05/13 08:58:32;;;;;;;;;;;;;;;20.42;75.08;99850.38;5098350;28;19924;-71
2022/05/13 09:01:09;;;;;;;;;;;;;;;20.45;75.98;99846.81;5097854;28;19954;-72
2022/05/13 09:03:40;;;;;;;;;;;;;;;20.45;75.76;99846.81;5097846;28;20394;-69
2022/05/13 09:06:14;;;;;;;;;;;;;;;20.41;76.02;99845.25;5098141;28;19946;-71
2022/05/13 09:08:50;;;;;;;;;;;;;;;20.39;76.42;99845.31;5097680;28;19924;-70
2022/05/13 09:11:22;;;;;;;;;;;;;;;20.35;76.61;99833.34;5097679;28;19924;-73
2022/05/13 09:13:57;;;;;;;;;;;;;;;20.15;76.96;99829.81;5098245;28;19924;-72
2022/05/13 09:16:31;;;;;;;;;;;;;;;19.95;77.19;99831.38;5097242;28;19924;-70
2022/05/13 09:19:03;;;;;;;;;;;;;;;19.87;77.55;99829.94;5097464;28;19931;-69
2022/05/13 09:21:35;;;;;;;;;;;;;;;19.74;77.59;99826.97;5097480;28;19939;-72
2022/05/13 09:24:04;;;;;;;;;;;;;;;19.66;78.15;99836.75;5097424;28;19935;-70
2022/05/13 09:26:34;;;;;;;;;;;;;;;19.68;78.92;99853.06;5097321;28;19924;-71
2022/05/13 09:29:06;;;;;;;;;;;;;;;19.72;79.38;99875.41;5095320;28;19954;-71
2022/05/13 09:31:37;;;;;;;;;;;;;;;19.72;79.85;99874.56;5079372;28;19928;-70
2022/05/13 09:34:30;;;;;;;;;;;;;;;19.74;80.34;99883.97;5097466;28;20293;-70
2022/05/13 09:37:20;;;;;;;;;;;;;;;19.71;80.55;99876.28;5079263;28;19979;-70
2022/05/13 09:39:49;;;;;;;;;;;;;;;19.64;80.36;99866.19;5096881;28;19925;-70
2022/05/13 09:42:23;;;;;;;;;;;;;;;19.66;80.50;99865.25;5097235;28;19931;-72
2022/05/13 09:44:52;;;;;;;;;;;;;;;19.69;80.48;99854.78;5097046;28;19924;-72
2022/05/13 09:47:27;;;;;;;;;;;;;;;19.70;80.23;99840.91;5096927;28;19954;-72
2022/05/13 09:50:20;;;;;;;;;;;;;;;19.73;80.44;99832.19;5097039;28;19924;-70
2022/05/13 09:52:51;;;;;;;;;;;;;;;19.72;80.24;99807.22;5097085;28;20377;-70
2022/05/13 09:55:33;;;;;;;;;;;;;;;19.69;79.95;99818.53;5096165;28;19928;-72
2022/05/13 09:58:09;;;;;;;;;;;;;;;19.76;79.71;99830.34;5096011;28;19928;-70
2022/05/13 10:00:39;;;;;;;;;;;;;;;19.88;79.46;99824.72;5096679;28;19924;-72
2022/05/13 10:03:10;;;;;;;;;;;;;;;19.91;79.46;99828.97;5096710;28;19931;-70
2022/05/13 10:05:39;;;;;;;;;;;;;;;19.89;79.23;99829.00;5096512;28;19924;-72
2022/05/13 10:08:11;;;;;;;;;;;;;;;19.88;79.02;99819.56;5096702;28;20343;-72
2022/05/13 10:16:02;;;;;;;;;;;;;;;20.16;78.67;99809.00;5096301;28;20271;-70
2022/05/13 10:18:32;;;;;;;;;;;;;;;20.25;78.41;99798.31;5095775;28;19924;-69
2022/05/13 10:21:03;;;;;;;;;;;;;;;20.36;78.38;99801.34;5096304;28;19928;-70
2022/05/13 10:23:39;;;;;;;;;;;;;;;20.50;78.03;99800.81;5096315;28;19924;-71
2022/05/13 10:26:10;;;;;;;;;;;;;;;20.69;77.64;99791.38;5096276;28;19937;-69
2022/05/13 10:28:41;;;;;;;;;;;;;;;20.82;77.26;99784.81;5095283;28;19969;-70
2022/05/13 10:31:12;;;;;;;;;;;;;;;20.94;76.63;99794.69;5096305;28;19977;-69
2022/05/13 10:33:42;;;;;;;;;;;;;;;21.04;76.16;99785.59;5096523;28;19997;-69
2022/05/13 10:36:13;;;;;;;;;;;;;;;21.24;75.94;99788.25;5095187;28;19924;-69
2022/05/13 10:38:47;;;;;;;;;;;;;;;21.42;75.01;99784.03;5096251;28;20285;-69
2022/05/13 10:41:29;;;;;;;;;;;;;;;21.66;74.21;99784.72;5095956;28;19932;-69
2022/05/13 10:44:07;;;;;;;;;;;;;;;21.69;72.84;99785.41;5096020;28;19924;-69
2022/05/13 10:46:54;;;;;;;;;;;;;;;21.83;71.88;99777.00;5094964;28;19969;-69
2022/05/13 10:49:40;;;;;;;;;;;;;;;22.01;70.78;99781.38;5096305;28;20354;-69
2022/05/13 10:52:14;;;;;;;;;;;;;;;22.14;70.63;99781.69;5095869;28;19931;-69
2022/05/13 10:54:49;;;;;;;;;;;;;;;22.26;70.15;99781.97;5095491;28;20334;-70
2022/05/13 10:57:30;;;;;;;;;;;;;;;22.34;68.81;99785.03;5094891;28;19931;-70
2022/05/13 11:00:04;;;;;;;;;;;;;;;22.41;68.09;99770.81;5095496;28;20468;-69
2022/05/13 11:02:47;;;;;;;;;;;;;;;22.60;68.19;99776.81;5095491;28;20018;-70
2022/05/13 11:05:22;;;;;;;;;;;;;;;22.79;67.73;99771.63;5062896;28;20464;-72
2022/05/13 11:07:54;;;;;;;;;;;;;;;22.85;67.24;99775.66;5094962;28;20401;-71
2022/05/13 11:10:30;;;;;;;;;;;;;;;22.84;67.15;99777.44;5093813;28;19932;-71
2022/05/13 11:13:05;;;;;;;;;;;;;;;22.86;67.04;99783.41;5095371;28;19924;-71
2022/05/13 11:15:37;;;;;;;;;;;;;;;22.89;67.29;99783.25;5094542;28;20385;-70
2022/05/13 11:18:12;;;;;;;;;;;;;;;22.86;67.22;99782.56;5095233;28;20389;-71
2022/05/13 11:20:45;;;;;;;;;;;;;;;22.87;67.14;99777.28;5095423;28;19930;-71
2022/05/13 11:23:21;;;;;;;;;;;;;;;22.95;66.80;99766.50;5095785;28;20044;-71
2022/05/13 11:25:58;;;;;;;;;;;;;;;22.96;66.25;99768.19;5095353;28;20412;-73
2022/05/13 11:28:36;;;;;;;;;;;;;;;22.91;65.83;99767.56;5095368;28;19928;-72
2022/05/13 11:31:14;;;;;;;;;;;;;;;22.81;65.45;99771.53;5095020;28;19924;-72
2022/05/13 11:33:54;;;;;;;;;;;;;;;22.63;65.55;99753.28;5094831;28;19932;-71
2022/05/13 11:36:28;;;;;;;;;;;;;;;22.40;66.38;99753.53;5093769;28;19924;-72
2022/05/13 11:39:06;;;;;;;;;;;;;;;22.32;66.71;99745.25;5095147;28;20372;-71
2022/05/13 11:41:51;;;;;;;;;;;;;;;22.28;66.93;99754.13;5094762;28;19924;-71
2022/05/13 11:45:15;;;;;;;;;;;;;;;22.29;67.14;99740.19;5094816;28;19931;-70
2022/05/13 11:47:56;;;;;;;;;;;;;;;22.39;67.46;99746.63;5093518;28;19931;-70
2022/05/13 11:50:25;;;;;;;;;;;;;;;22.40;67.48;99748.34;5094986;28;20019;-71
2022/05/13 11:53:00;;;;;;;;;;;;;;;22.44;67.04;99747.25;5095251;28;20019;-72
2022/05/13 11:55:45;;;;;;;;;;;;;;;22.56;67.29;99738.88;5094554;28;19924;-70
2022/05/13 11:58:29;;;;;;;;;;;;;;;22.70;66.96;99729.59;5094497;28;19962;-70
2022/05/13 12:01:10;;;;;;;;;;;;;;;22.77;66.73;99738.78;5094145;28;19974;-69
2022/05/13 12:03:39;;;;;;;;;;;;;;;22.97;66.99;99733.41;5094717;28;20034;-70
2022/05/13 12:06:09;;;;;;;;;;;;;;;23.09;66.52;99727.56;5094600;28;19924;-72
2022/05/13 12:08:42;;;;;;;;;;;;;;;23.01;65.39;99724.53;5094499;28;19928;-71
2022/05/13 12:11:23;;;;;;;;;;;;;;;22.96;65.21;99726.53;5094517;28;19924;-71
2022/05/13 12:14:01;;;;;;;;;;;;;;;23.04;65.07;99714.78;5094350;28;20395;-71
2022/05/13 12:16:36;;;;;;;;;;;;;;;23.17;65.02;99704.59;5094406;28;19924;-70
2022/05/13 12:19:21;;;;;;;;;;;;;;;23.10;64.17;99691.06;5094230;28;20023;-70
2022/05/13 12:21:56;;;;;;;;;;;;;;;22.99;64.55;99689.91;5094409;28;20400;-72
2022/05/13 12:24:27;;;;;;;;;;;;;;;22.87;65.16;99698.34;5094789;28;19931;-72
2022/05/13 12:27:07;;;;;;;;;;;;;;;22.80;65.12;99690.00;5094469;28;20279;-72
2022/05/13 12:29:47;;;;;;;;;;;;;;;22.66;64.51;99687.25;5093888;28;20019;-72
2022/05/13 12:32:24;;;;;;;;;;;;;;;22.73;64.99;99682.56;5093469;28;21497;-71
2022/05/13 12:37:39;;;;;;;;;;;;;;;22.67;64.63;99663.75;5094033;28;19928;-72
2022/05/13 12:40:13;;;;;;;;;;;;;;;22.67;64.95;99668.94;5092737;28;19931;-72
2022/05/13 12:42:51;;;;;;;;;;;;;;;22.63;65.08;99682.19;5093794;28;19924;-71
2022/05/13 12:45:40;;;;;;;;;;;;;;;22.67;65.79;99688.94;5094249;28;19986;-71
2022/05/13 12:48:18;;;;;;;;;;;;;;;22.61;65.79;99671.88;5093821;28;19967;-70
2022/05/13 12:50:49;;;;;;;;;;;;;;;22.56;65.37;99681.63;5093912;28;20374;-70
2022/05/13 12:53:23;;;;;;;;;;;;;;;22.55;65.34;99669.56;5094160;28;19939;-71
2022/05/13 12:56:11;;;;;;;;;;;;;;;22.55;65.92;99672.16;5094201;28;20401;-71
2022/05/13 12:58:42;;;;;;;;;;;;;;;22.56;66.17;99653.00;5093761;28;20018;-72
2022/05/13 13:01:11;;;;;;;;;;;;;;;22.62;66.53;99644.94;5094061;28;19924;-71
2022/05/13 13:03:51;;;;;;;;;;;;;;;22.67;67.01;99640.31;5092546;28;19974;-71
2022/05/13 13:06:21;;;;;;;;;;;;;;;22.71;66.53;99624.56;5094122;28;19931;-70
2022/05/13 13:08:51;;;;;;;;;;;;;;;22.80;65.87;99621.47;5093671;28;19924;-70
2022/05/13 13:11:31;;;;;;;;;;;;;;;22.91;65.67;99609.63;5093778;28;19931;-70
2022/05/13 13:14:07;;;;;;;;;;;;;;;23.06;65.82;99597.56;5094047;28;19928;-70
2022/05/13 13:16:39;;;;;;;;;;;;;;;23.11;65.46;99592.91;5093659;28;20023;-69
2022/05/13 13:19:11;;;;;;;;;;;;;;;23.08;65.17;99587.91;5092639;28;20018;-69
2022/05/13 13:21:52;;;;;;;;;;;;;;;23.17;65.18;99600.41;5093667;28;19924;-69
2022/05/13 13:24:22;;;;;;;;;;;;;;;23.17;64.71;99610.84;5093833;28;19924;-71
2022/05/13 13:27:05;;;;;;;;;;;;;;;23.25;64.39;99601.69;5092624;28;20266;-70
2022/05/13 13:29:38;;;;;;;;;;;;;;;23.27;64.36;99606.81;5093312;28;19924;-71
2022/05/13 13:32:12;;;;;;;;;;;;;;;23.26;63.87;99605.13;5094713;28;19928;-71
2022/05/13 13:34:51;;;;;;;;;;;;;;;23.18;63.93;99612.50;5097721;28;19931;-71
2022/05/13 13:37:21;;;;;;;;;;;;;;;22.97;64.53;99618.84;5097233;28;19928;-71
2022/05/13 13:40:09;;;;;;;;;;;;;;;22.93;64.65;99622.53;5097165;28;19932;-71
2022/05/13 13:42:38;;;;;;;;;;;;;;;22.91;64.53;99619.19;5097294;28;20392;-71
2022/05/13 13:45:09;;;;;;;;;;;;;;;22.87;64.51;99633.25;5095883;28;19928;-71
2022/05/13 13:47:40;;;;;;;;;;;;;;;22.85;64.34;99622.94;5097267;28;19956;-71
2022/05/13 13:50:13;;;;;;;;;;;;;;;22.84;64.06;99626.47;5097012;28;19930;-71